Winters, TX (79567)

6:18 PM CST on February 05, 2016 (GMT -0600)
West of Lake Winters | | Change Station
CLOSE
Current Station
Personal Weather Station
Location: Winters, TX
Elevation: 1834 ft
Nearby Weather Stations

Elev 1834 ft 31.96 °N, 99.88 °W | Updated 25 seconds ago

Partly Cloudy
Partly Cloudy
55.9 °F
Feels Like 55.9 °F
N
4.3
Wind Variable Wind from SW
Gusts 4.9 mph

Today
High -- | Low -- °F
--% Chance of Precip.
Yesterday
High -- | Low -- °F
Precip. -- in
Pressure 30.18 in
Visibility 10.0 miles
Clouds Mostly Cloudy 9000 ft
Dew Point 27 °F
Humidity 33%
Rainfall 0.00 in
Snow Depth Not available.
7:30 AM 6:16 PM
Waning Crescent, 8% visible
METAR KDYS 052358Z AUTO 26009KT 10SM BKN090 14/M05 A3018 RMK AO2 SLP218 T01411055 10153 20108 53002 $
Pressure 30.18 in
Visibility 10.0 miles
Clouds Mostly Cloudy 9000 ft
Dew Point 27 °F
Humidity 33%
Rainfall 0.00 in
Snow Depth Not available.
7:30 AM 6:16 PM
Waning Crescent, 8% visible
METAR KDYS 052358Z AUTO 26009KT 10SM BKN090 14/M05 A3018 RMK AO2 SLP218 T01411055 10153 20108 53002 $

10-Day Weather Forecast

Almanac

Astronomy

Feb. 05, 2016 Rise Set
Actual Time
Civil Twilight
Nautical Twilight
Astronomical Twilight
Moon
Length of Visible Light
Length of Day
Tomorrow will be .
, % of the Moon is Illuminated

Today's Extremes

State Highs State Lows

Community

WunderPhotos

Upload Photos

1,890,893 photos uploaded!

WunderBlog® & News

Nearby

Air Quality

  Air Quality AQ Index Pollutant
Not available.

Snow Depth

Station Depth Elevation

Earthquake Activity

City Distance Mag. Time & Date
Minimum magnitude displayed is 2.5.

Coastal Water Temperatures

Place Temperature

Stations

Nearby Weather Stations

Station Location Temp. Windchill Dew Point Humidity Wind Precip. Elev Updated Type
                   

Watches & Warnings

There are currently no watches in effect.